Airport View

Enter AWOS ICAO identifier for current METAR.

ex. KFNL

KDNS 280335Z AUTO 32010KT 10SM SCT050 SCT060 11/05 A2995 RMK AO2

28 Sep 2020 03:39

Frequency: 119.95

Phone: 712-263-6558

Other Area AWOS: KHNR - KCIN - KADU - KSLB

TAF KOMA 272323Z 2800/2824 23009KT P6SM FEW060 SCT100 FM281200 32010KT P6SM SCT050 BKN150 FM281500 32013G21KT P6SM SCT040